sensor_id;sensor_type;location;lat;lon;timestamp;P1;durP1;ratioP1;P2;durP2;ratioP2
40367;SDS011;26075;43.320;21.920;2023-04-03T00:02:47;31.30;;;18.95;;
40367;SDS011;26075;43.320;21.920;2023-04-03T00:07:48;29.08;;;17.73;;
40367;SDS011;26075;43.320;21.920;2023-04-03T00:12:49;32.10;;;17.50;;
40367;SDS011;26075;43.320;21.920;2023-04-03T00:17:51;23.63;;;16.15;;
40367;SDS011;26075;43.320;21.920;2023-04-03T00:22:52;25.27;;;16.40;;
40367;SDS011;26075;43.320;21.920;2023-04-03T00:27:53;25.35;;;14.73;;
40367;SDS011;26075;43.320;21.920;2023-04-03T00:32:54;22.70;;;14.40;;
40367;SDS011;26075;43.320;21.920;2023-04-03T00:37:55;22.85;;;13.90;;
40367;SDS011;26075;43.320;21.920;2023-04-03T00:42:57;22.45;;;13.88;;
40367;SDS011;26075;43.320;21.920;2023-04-03T00:47:59;22.83;;;13.85;;
40367;SDS011;26075;43.320;21.920;2023-04-03T00:53:01;18.00;;;11.48;;
40367;SDS011;26075;43.320;21.920;2023-04-03T00:58:02;19.77;;;12.32;;
40367;SDS011;26075;43.320;21.920;2023-04-03T01:03:04;20.02;;;12.00;;
40367;SDS011;26075;43.320;21.920;2023-04-03T01:08:05;20.83;;;12.95;;
40367;SDS011;26075;43.320;21.920;2023-04-03T01:18:40;21.75;;;14.45;;
40367;SDS011;26075;43.320;21.920;2023-04-03T01:28:43;28.70;;;17.00;;
40367;SDS011;26075;43.320;21.920;2023-04-03T01:33:44;30.60;;;16.63;;
40367;SDS011;26075;43.320;21.920;2023-04-03T01:38:45;25.05;;;15.68;;
40367;SDS011;26075;43.320;21.920;2023-04-03T01:43:47;23.25;;;14.75;;
40367;SDS011;26075;43.320;21.920;2023-04-03T01:48:48;25.33;;;15.50;;
40367;SDS011;26075;43.320;21.920;2023-04-03T01:53:49;20.88;;;13.10;;
40367;SDS011;26075;43.320;21.920;2023-04-03T01:58:51;19.42;;;12.65;;
40367;SDS011;26075;43.320;21.920;2023-04-03T02:03:52;18.13;;;10.88;;
40367;SDS011;26075;43.320;21.920;2023-04-03T02:08:53;21.02;;;12.23;;
40367;SDS011;26075;43.320;21.920;2023-04-03T02:13:54;18.73;;;12.80;;
40367;SDS011;26075;43.320;21.920;2023-04-03T02:18:55;16.33;;;10.23;;
40367;SDS011;26075;43.320;21.920;2023-04-03T02:23:56;13.77;;;9.85;;
40367;SDS011;26075;43.320;21.920;2023-04-03T02:28:58;12.15;;;8.55;;
40367;SDS011;26075;43.320;21.920;2023-04-03T02:33:59;14.13;;;8.65;;
40367;SDS011;26075;43.320;21.920;2023-04-03T02:39:00;12.35;;;8.02;;
40367;SDS011;26075;43.320;21.920;2023-04-03T02:44:02;15.60;;;9.68;;
40367;SDS011;26075;43.320;21.920;2023-04-03T02:49:04;14.55;;;9.90;;
40367;SDS011;26075;43.320;21.920;2023-04-03T02:54:05;14.40;;;8.40;;
40367;SDS011;26075;43.320;21.920;2023-04-03T02:59:06;17.58;;;8.75;;
40367;SDS011;26075;43.320;21.920;2023-04-03T03:04:07;14.40;;;8.48;;
40367;SDS011;26075;43.320;21.920;2023-04-03T03:09:08;15.55;;;9.43;;
40367;SDS011;26075;43.320;21.920;2023-04-03T03:14:09;14.77;;;8.77;;
40367;SDS011;26075;43.320;21.920;2023-04-03T03:19:11;14.02;;;8.57;;
40367;SDS011;26075;43.320;21.920;2023-04-03T03:24:12;16.40;;;8.88;;
40367;SDS011;26075;43.320;21.920;2023-04-03T03:29:13;14.15;;;9.35;;
40367;SDS011;26075;43.320;21.920;2023-04-03T03:34:14;19.52;;;11.05;;
40367;SDS011;26075;43.320;21.920;2023-04-03T03:39:15;18.73;;;10.93;;
40367;SDS011;26075;43.320;21.920;2023-04-03T03:44:16;13.63;;;8.88;;
40367;SDS011;26075;43.320;21.920;2023-04-03T03:49:17;16.83;;;8.40;;
40367;SDS011;26075;43.320;21.920;2023-04-03T03:54:18;15.43;;;8.38;;
40367;SDS011;26075;43.320;21.920;2023-04-03T03:59:19;18.02;;;8.70;;
40367;SDS011;26075;43.320;21.920;2023-04-03T04:04:21;17.23;;;8.27;;
40367;SDS011;26075;43.320;21.920;2023-04-03T04:09:22;18.25;;;8.82;;
40367;SDS011;26075;43.320;21.920;2023-04-03T04:14:23;12.82;;;8.43;;
40367;SDS011;26075;43.320;21.920;2023-04-03T04:19:24;10.73;;;6.63;;
40367;SDS011;26075;43.320;21.920;2023-04-03T04:24:25;10.73;;;6.32;;
40367;SDS011;26075;43.320;21.920;2023-04-03T04:29:26;12.77;;;6.78;;
40367;SDS011;26075;43.320;21.920;2023-04-03T04:34:27;12.07;;;7.05;;
40367;SDS011;26075;43.320;21.920;2023-04-03T04:39:29;12.77;;;6.90;;
40367;SDS011;26075;43.320;21.920;2023-04-03T04:44:30;11.20;;;7.30;;
40367;SDS011;26075;43.320;21.920;2023-04-03T04:49:31;12.38;;;7.30;;
40367;SDS011;26075;43.320;21.920;2023-04-03T04:54:32;25.00;;;8.73;;
40367;SDS011;26075;43.320;21.920;2023-04-03T04:59:33;18.08;;;8.20;;
40367;SDS011;26075;43.320;21.920;2023-04-03T05:04:34;18.30;;;9.25;;
40367;SDS011;26075;43.320;21.920;2023-04-03T05:09:35;14.13;;;9.32;;
40367;SDS011;26075;43.320;21.920;2023-04-03T05:14:36;15.50;;;8.75;;
40367;SDS011;26075;43.320;21.920;2023-04-03T05:19:37;16.48;;;8.73;;
40367;SDS011;26075;43.320;21.920;2023-04-03T05:24:38;14.70;;;9.52;;
40367;SDS011;26075;43.320;21.920;2023-04-03T05:29:39;21.42;;;12.18;;
40367;SDS011;26075;43.320;21.920;2023-04-03T05:34:43;16.40;;;10.32;;
40367;SDS011;26075;43.320;21.920;2023-04-03T05:39:44;15.68;;;9.27;;
40367;SDS011;26075;43.320;21.920;2023-04-03T05:44:45;12.30;;;7.32;;
40367;SDS011;26075;43.320;21.920;2023-04-03T05:49:47;15.15;;;8.80;;
40367;SDS011;26075;43.320;21.920;2023-04-03T05:54:48;17.90;;;9.05;;
40367;SDS011;26075;43.320;21.920;2023-04-03T05:59:49;18.63;;;11.32;;
40367;SDS011;26075;43.320;21.920;2023-04-03T06:04:50;21.73;;;13.35;;
40367;SDS011;26075;43.320;21.920;2023-04-03T06:09:52;22.52;;;14.73;;
40367;SDS011;26075;43.320;21.920;2023-04-03T06:14:53;30.50;;;15.13;;
40367;SDS011;26075;43.320;21.920;2023-04-03T06:19:54;27.83;;;18.58;;
40367;SDS011;26075;43.320;21.920;2023-04-03T06:24:56;28.52;;;19.58;;
40367;SDS011;26075;43.320;21.920;2023-04-03T06:29:57;34.80;;;24.90;;
40367;SDS011;26075;43.320;21.920;2023-04-03T06:34:58;35.60;;;25.20;;
40367;SDS011;26075;43.320;21.920;2023-04-03T06:40:00;44.03;;;24.63;;
40367;SDS011;26075;43.320;21.920;2023-04-03T06:45:01;16.20;;;6.57;;
40367;SDS011;26075;43.320;21.920;2023-04-03T06:50:02;12.43;;;7.30;;
40367;SDS011;26075;43.320;21.920;2023-04-03T06:55:03;17.30;;;8.23;;
40367;SDS011;26075;43.320;21.920;2023-04-03T07:00:05;15.63;;;8.82;;
40367;SDS011;26075;43.320;21.920;2023-04-03T07:05:07;14.77;;;9.05;;
40367;SDS011;26075;43.320;21.920;2023-04-03T07:10:09;17.27;;;10.45;;
40367;SDS011;26075;43.320;21.920;2023-04-03T07:15:11;15.65;;;10.77;;
40367;SDS011;26075;43.320;21.920;2023-04-03T07:20:14;14.73;;;9.85;;
40367;SDS011;26075;43.320;21.920;2023-04-03T07:25:15;12.98;;;9.88;;
40367;SDS011;26075;43.320;21.920;2023-04-03T07:30:16;12.57;;;9.88;;
40367;SDS011;26075;43.320;21.920;2023-04-03T07:35:17;14.70;;;9.02;;
40367;SDS011;26075;43.320;21.920;2023-04-03T07:40:19;11.48;;;8.80;;
40367;SDS011;26075;43.320;21.920;2023-04-03T07:45:20;12.15;;;8.45;;
40367;SDS011;26075;43.320;21.920;2023-04-03T07:50:22;18.58;;;10.98;;
40367;SDS011;26075;43.320;21.920;2023-04-03T07:55:24;18.00;;;13.25;;
40367;SDS011;26075;43.320;21.920;2023-04-03T08:00:25;14.73;;;11.52;;
40367;SDS011;26075;43.320;21.920;2023-04-03T08:05:26;19.40;;;13.23;;
40367;SDS011;26075;43.320;21.920;2023-04-03T08:10:29;17.77;;;13.35;;
40367;SDS011;26075;43.320;21.920;2023-04-03T08:15:30;18.10;;;13.55;;
40367;SDS011;26075;43.320;21.920;2023-04-03T08:20:31;25.48;;;18.30;;
40367;SDS011;26075;43.320;21.920;2023-04-03T08:25:33;27.30;;;21.45;;
40367;SDS011;26075;43.320;21.920;2023-04-03T08:30:40;24.70;;;18.53;;
40367;SDS011;26075;43.320;21.920;2023-04-03T08:35:42;26.30;;;20.20;;
40367;SDS011;26075;43.320;21.920;2023-04-03T08:40:43;23.50;;;18.85;;
40367;SDS011;26075;43.320;21.920;2023-04-03T08:45:51;22.85;;;18.42;;
40367;SDS011;26075;43.320;21.920;2023-04-03T08:50:54;23.88;;;18.48;;
40367;SDS011;26075;43.320;21.920;2023-04-03T08:56:00;25.10;;;17.98;;
40367;SDS011;26075;43.320;21.920;2023-04-03T09:01:12;24.75;;;20.33;;
40367;SDS011;26075;43.320;21.920;2023-04-03T09:06:16;29.40;;;21.15;;
40367;SDS011;26075;43.320;21.920;2023-04-03T09:11:26;27.80;;;22.17;;
40367;SDS011;26075;43.320;21.920;2023-04-03T09:22:03;29.70;;;21.90;;
40367;SDS011;26075;43.320;21.920;2023-04-03T09:27:26;35.67;;;22.17;;
40367;SDS011;26075;43.320;21.920;2023-04-03T09:32:30;29.70;;;23.05;;
40367;SDS011;26075;43.320;21.920;2023-04-03T09:42:40;35.90;;;22.73;;
40367;SDS011;26075;43.320;21.920;2023-04-03T09:47:42;35.00;;;24.05;;
40367;SDS011;26075;43.320;21.920;2023-04-03T09:52:45;33.60;;;23.75;;
40367;SDS011;26075;43.320;21.920;2023-04-03T09:57:46;30.23;;;22.38;;
40367;SDS011;26075;43.320;21.920;2023-04-03T10:02:54;34.97;;;21.13;;
40367;SDS011;26075;43.320;21.920;2023-04-03T10:23:24;33.20;;;22.42;;
40367;SDS011;26075;43.320;21.920;2023-04-03T10:29:15;34.65;;;23.63;;
40367;SDS011;26075;43.320;21.920;2023-04-03T10:34:05;37.00;;;25.67;;
40367;SDS011;26075;43.320;21.920;2023-04-03T10:39:12;38.03;;;26.63;;
40367;SDS011;26075;43.320;21.920;2023-04-03T11:00:41;43.10;;;27.52;;
40367;SDS011;26075;43.320;21.920;2023-04-03T11:10:49;44.17;;;27.85;;
40367;SDS011;26075;43.320;21.920;2023-04-03T11:15:52;43.15;;;26.52;;
40367;SDS011;26075;43.320;21.920;2023-04-03T11:20:59;38.92;;;26.73;;
40367;SDS011;26075;43.320;21.920;2023-04-03T11:26:12;39.78;;;24.38;;
40367;SDS011;26075;43.320;21.920;2023-04-03T11:36:51;31.58;;;20.88;;
40367;SDS011;26075;43.320;21.920;2023-04-03T11:58:50;30.20;;;20.48;;
40367;SDS011;26075;43.320;21.920;2023-04-03T12:24:39;28.75;;;20.77;;
40367;SDS011;26075;43.320;21.920;2023-04-03T12:29:24;31.05;;;21.98;;
40367;SDS011;26075;43.320;21.920;2023-04-03T12:39:40;35.03;;;23.67;;
40367;SDS011;26075;43.320;21.920;2023-04-03T12:49:53;34.22;;;23.15;;
40367;SDS011;26075;43.320;21.920;2023-04-03T12:54:55;29.90;;;22.10;;
40367;SDS011;26075;43.320;21.920;2023-04-03T12:59:57;33.83;;;23.90;;
40367;SDS011;26075;43.320;21.920;2023-04-03T13:04:59;33.67;;;24.15;;
40367;SDS011;26075;43.320;21.920;2023-04-03T13:20:19;33.65;;;23.20;;
40367;SDS011;26075;43.320;21.920;2023-04-03T13:25:21;31.42;;;24.02;;
40367;SDS011;26075;43.320;21.920;2023-04-03T13:30:27;30.25;;;22.58;;
40367;SDS011;26075;43.320;21.920;2023-04-03T13:35:35;29.60;;;24.13;;
40367;SDS011;26075;43.320;21.920;2023-04-03T13:40:46;31.55;;;23.75;;
40367;SDS011;26075;43.320;21.920;2023-04-03T13:56:17;33.90;;;25.10;;
40367;SDS011;26075;43.320;21.920;2023-04-03T14:01:22;37.97;;;25.73;;
40367;SDS011;26075;43.320;21.920;2023-04-03T14:06:24;37.35;;;24.67;;
40367;SDS011;26075;43.320;21.920;2023-04-03T14:11:26;34.80;;;26.52;;
40367;SDS011;26075;43.320;21.920;2023-04-03T14:16:29;32.25;;;25.42;;
40367;SDS011;26075;43.320;21.920;2023-04-03T14:21:33;33.35;;;24.10;;
40367;SDS011;26075;43.320;21.920;2023-04-03T14:26:34;40.03;;;24.75;;
40367;SDS011;26075;43.320;21.920;2023-04-03T14:31:35;34.40;;;24.90;;
40367;SDS011;26075;43.320;21.920;2023-04-03T14:36:36;31.92;;;23.55;;
40367;SDS011;26075;43.320;21.920;2023-04-03T14:41:38;31.05;;;22.88;;
40367;SDS011;26075;43.320;21.920;2023-04-03T14:46:40;35.90;;;23.38;;
40367;SDS011;26075;43.320;21.920;2023-04-03T14:51:43;30.63;;;21.85;;
40367;SDS011;26075;43.320;21.920;2023-04-03T14:56:44;29.70;;;22.73;;
40367;SDS011;26075;43.320;21.920;2023-04-03T15:01:46;30.98;;;22.17;;
40367;SDS011;26075;43.320;21.920;2023-04-03T15:06:47;31.75;;;22.33;;
40367;SDS011;26075;43.320;21.920;2023-04-03T15:11:49;26.88;;;20.00;;
40367;SDS011;26075;43.320;21.920;2023-04-03T15:16:51;25.13;;;19.25;;
40367;SDS011;26075;43.320;21.920;2023-04-03T15:21:52;26.83;;;19.15;;
40367;SDS011;26075;43.320;21.920;2023-04-03T15:26:53;23.70;;;17.23;;
40367;SDS011;26075;43.320;21.920;2023-04-03T15:31:54;24.30;;;18.52;;
40367;SDS011;26075;43.320;21.920;2023-04-03T15:36:55;24.88;;;19.08;;
40367;SDS011;26075;43.320;21.920;2023-04-03T15:41:56;22.48;;;17.45;;
40367;SDS011;26075;43.320;21.920;2023-04-03T15:47:03;23.58;;;18.15;;
40367;SDS011;26075;43.320;21.920;2023-04-03T15:52:05;25.60;;;18.23;;
40367;SDS011;26075;43.320;21.920;2023-04-03T15:57:06;24.30;;;18.85;;
40367;SDS011;26075;43.320;21.920;2023-04-03T16:02:07;21.50;;;17.58;;
40367;SDS011;26075;43.320;21.920;2023-04-03T16:07:10;22.13;;;17.02;;
40367;SDS011;26075;43.320;21.920;2023-04-03T16:12:11;22.10;;;17.48;;
40367;SDS011;26075;43.320;21.920;2023-04-03T16:17:12;14.02;;;9.88;;
40367;SDS011;26075;43.320;21.920;2023-04-03T16:22:13;21.45;;;16.30;;
40367;SDS011;26075;43.320;21.920;2023-04-03T16:27:14;18.83;;;15.60;;
40367;SDS011;26075;43.320;21.920;2023-04-03T16:32:15;18.58;;;15.85;;
40367;SDS011;26075;43.320;21.920;2023-04-03T16:37:16;18.00;;;15.23;;
40367;SDS011;26075;43.320;21.920;2023-04-03T16:42:17;24.08;;;16.27;;
40367;SDS011;26075;43.320;21.920;2023-04-03T16:47:18;25.88;;;18.40;;
40367;SDS011;26075;43.320;21.920;2023-04-03T16:52:20;19.23;;;16.75;;
40367;SDS011;26075;43.320;21.920;2023-04-03T16:57:21;20.55;;;16.40;;
40367;SDS011;26075;43.320;21.920;2023-04-03T17:02:24;21.92;;;17.10;;
40367;SDS011;26075;43.320;21.920;2023-04-03T17:07:26;21.08;;;16.27;;
40367;SDS011;26075;43.320;21.920;2023-04-03T17:12:27;20.98;;;17.98;;
40367;SDS011;26075;43.320;21.920;2023-04-03T17:17:28;20.90;;;17.33;;
40367;SDS011;26075;43.320;21.920;2023-04-03T17:22:29;23.05;;;17.08;;
40367;SDS011;26075;43.320;21.920;2023-04-03T17:27:32;19.77;;;16.00;;
40367;SDS011;26075;43.320;21.920;2023-04-03T17:32:33;19.45;;;16.00;;
40367;SDS011;26075;43.320;21.920;2023-04-03T17:37:34;18.88;;;15.65;;
40367;SDS011;26075;43.320;21.920;2023-04-03T17:42:35;15.55;;;13.75;;
40367;SDS011;26075;43.320;21.920;2023-04-03T17:47:36;16.95;;;12.18;;
40367;SDS011;26075;43.320;21.920;2023-04-03T17:52:37;15.85;;;13.40;;
40367;SDS011;26075;43.320;21.920;2023-04-03T17:57:38;17.10;;;13.38;;
40367;SDS011;26075;43.320;21.920;2023-04-03T18:02:39;21.15;;;15.15;;
40367;SDS011;26075;43.320;21.920;2023-04-03T18:07:41;18.65;;;13.57;;
40367;SDS011;26075;43.320;21.920;2023-04-03T18:12:42;15.65;;;13.50;;
40367;SDS011;26075;43.320;21.920;2023-04-03T18:17:45;20.30;;;13.90;;
40367;SDS011;26075;43.320;21.920;2023-04-03T18:22:49;16.23;;;13.17;;
40367;SDS011;26075;43.320;21.920;2023-04-03T18:27:51;17.20;;;12.95;;
40367;SDS011;26075;43.320;21.920;2023-04-03T18:32:52;15.23;;;13.30;;
40367;SDS011;26075;43.320;21.920;2023-04-03T18:37:54;16.13;;;12.45;;
40367;SDS011;26075;43.320;21.920;2023-04-03T18:42:55;13.95;;;11.70;;
40367;SDS011;26075;43.320;21.920;2023-04-03T18:47:56;12.18;;;10.60;;
40367;SDS011;26075;43.320;21.920;2023-04-03T18:52:57;14.02;;;11.40;;
40367;SDS011;26075;43.320;21.920;2023-04-03T18:57:58;14.90;;;11.20;;
40367;SDS011;26075;43.320;21.920;2023-04-03T19:02:59;12.95;;;10.85;;
40367;SDS011;26075;43.320;21.920;2023-04-03T19:08:01;12.60;;;10.80;;
40367;SDS011;26075;43.320;21.920;2023-04-03T19:13:02;12.45;;;10.65;;
40367;SDS011;26075;43.320;21.920;2023-04-03T19:18:03;13.18;;;9.85;;
40367;SDS011;26075;43.320;21.920;2023-04-03T19:23:04;13.30;;;10.00;;
40367;SDS011;26075;43.320;21.920;2023-04-03T19:28:07;10.48;;;8.57;;
40367;SDS011;26075;43.320;21.920;2023-04-03T19:33:08;11.75;;;8.70;;
40367;SDS011;26075;43.320;21.920;2023-04-03T19:38:09;11.77;;;7.93;;
40367;SDS011;26075;43.320;21.920;2023-04-03T19:43:11;9.15;;;6.68;;
40367;SDS011;26075;43.320;21.920;2023-04-03T19:48:12;10.52;;;6.88;;
40367;SDS011;26075;43.320;21.920;2023-04-03T19:53:13;9.05;;;6.20;;
40367;SDS011;26075;43.320;21.920;2023-04-03T19:58:18;8.20;;;5.80;;
40367;SDS011;26075;43.320;21.920;2023-04-03T20:03:19;6.43;;;4.72;;
40367;SDS011;26075;43.320;21.920;2023-04-03T20:08:20;5.85;;;4.57;;
40367;SDS011;26075;43.320;21.920;2023-04-03T20:13:21;8.55;;;5.53;;
40367;SDS011;26075;43.320;21.920;2023-04-03T20:18:23;7.75;;;5.93;;
40367;SDS011;26075;43.320;21.920;2023-04-03T20:23:24;8.55;;;6.60;;
40367;SDS011;26075;43.320;21.920;2023-04-03T20:28:26;8.52;;;5.43;;
40367;SDS011;26075;43.320;21.920;2023-04-03T20:33:27;8.32;;;5.30;;
40367;SDS011;26075;43.320;21.920;2023-04-03T20:38:29;7.03;;;4.90;;
40367;SDS011;26075;43.320;21.920;2023-04-03T20:43:30;7.68;;;4.60;;
40367;SDS011;26075;43.320;21.920;2023-04-03T20:48:31;8.32;;;4.68;;
40367;SDS011;26075;43.320;21.920;2023-04-03T20:53:32;10.10;;;4.93;;
40367;SDS011;26075;43.320;21.920;2023-04-03T20:58:34;7.55;;;4.45;;
40367;SDS011;26075;43.320;21.920;2023-04-03T21:03:37;6.47;;;4.40;;
40367;SDS011;26075;43.320;21.920;2023-04-03T21:19:36;7.95;;;4.70;;
40367;SDS011;26075;43.320;21.920;2023-04-03T21:24:44;5.80;;;3.55;;
40367;SDS011;26075;43.320;21.920;2023-04-03T21:29:45;5.88;;;3.58;;
40367;SDS011;26075;43.320;21.920;2023-04-03T21:34:46;7.88;;;3.28;;
40367;SDS011;26075;43.320;21.920;2023-04-03T21:39:47;7.00;;;3.00;;
40367;SDS011;26075;43.320;21.920;2023-04-03T21:44:48;5.38;;;2.40;;
40367;SDS011;26075;43.320;21.920;2023-04-03T21:49:50;7.03;;;2.80;;
40367;SDS011;26075;43.320;21.920;2023-04-03T21:54:51;11.20;;;4.28;;
40367;SDS011;26075;43.320;21.920;2023-04-03T21:59:52;9.38;;;6.22;;
40367;SDS011;26075;43.320;21.920;2023-04-03T22:04:53;5.80;;;3.10;;
40367;SDS011;26075;43.320;21.920;2023-04-03T22:09:54;4.72;;;2.78;;
40367;SDS011;26075;43.320;21.920;2023-04-03T22:14:55;5.45;;;3.17;;
40367;SDS011;26075;43.320;21.920;2023-04-03T22:19:56;5.25;;;3.08;;
40367;SDS011;26075;43.320;21.920;2023-04-03T22:24:57;6.28;;;2.97;;
40367;SDS011;26075;43.320;21.920;2023-04-03T22:30:00;4.13;;;2.05;;
40367;SDS011;26075;43.320;21.920;2023-04-03T22:35:01;4.25;;;2.22;;
40367;SDS011;26075;43.320;21.920;2023-04-03T22:40:02;4.72;;;2.40;;
40367;SDS011;26075;43.320;21.920;2023-04-03T22:45:04;4.15;;;2.10;;
40367;SDS011;26075;43.320;21.920;2023-04-03T22:50:05;5.30;;;2.90;;
40367;SDS011;26075;43.320;21.920;2023-04-03T22:55:06;4.30;;;2.53;;
40367;SDS011;26075;43.320;21.920;2023-04-03T23:00:08;3.65;;;1.95;;
40367;SDS011;26075;43.320;21.920;2023-04-03T23:05:10;3.90;;;2.67;;
40367;SDS011;26075;43.320;21.920;2023-04-03T23:10:11;3.40;;;1.98;;
40367;SDS011;26075;43.320;21.920;2023-04-03T23:15:12;3.80;;;2.42;;
40367;SDS011;26075;43.320;21.920;2023-04-03T23:20:14;5.00;;;1.95;;
40367;SDS011;26075;43.320;21.920;2023-04-03T23:25:15;3.00;;;1.80;;
40367;SDS011;26075;43.320;21.920;2023-04-03T23:30:16;3.95;;;1.77;;
40367;SDS011;26075;43.320;21.920;2023-04-03T23:35:17;5.63;;;2.10;;
40367;SDS011;26075;43.320;21.920;2023-04-03T23:40:18;3.55;;;1.63;;
40367;SDS011;26075;43.320;21.920;2023-04-03T23:45:19;5.28;;;1.65;;
40367;SDS011;26075;43.320;21.920;2023-04-03T23:50:20;2.80;;;1.42;;
40367;SDS011;26075;43.320;21.920;2023-04-03T23:55:21;2.40;;;1.00;;
